sensor_id;sensor_type;location;lat;lon;timestamp;pressure;altitude;pressure_sealevel;temperature;humidity
51147;BME280;37207;53.060;18.726;2023-12-29T00:02:07;100206.46;;;4.69;94.54
51147;BME280;37207;53.060;18.726;2023-12-29T00:04:33;100200.29;;;4.66;94.41
51147;BME280;37207;53.060;18.726;2023-12-29T00:07:01;100201.50;;;4.63;94.45
51147;BME280;37207;53.060;18.726;2023-12-29T00:09:28;100198.27;;;4.60;94.39
51147;BME280;37207;53.060;18.726;2023-12-29T00:11:55;100196.34;;;4.57;94.37
51147;BME280;37207;53.060;18.726;2023-12-29T00:14:21;100199.09;;;4.52;94.35
51147;BME280;37207;53.060;18.726;2023-12-29T00:16:48;100193.42;;;4.48;94.33
51147;BME280;37207;53.060;18.726;2023-12-29T00:19:14;100197.64;;;4.44;94.37
51147;BME280;37207;53.060;18.726;2023-12-29T00:21:41;100190.78;;;4.40;94.64
51147;BME280;37207;53.060;18.726;2023-12-29T00:24:07;100188.91;;;4.36;94.64
51147;BME280;37207;53.060;18.726;2023-12-29T00:26:34;100184.00;;;4.32;94.42
51147;BME280;37207;53.060;18.726;2023-12-29T00:29:00;100177.94;;;4.27;94.35
51147;BME280;37207;53.060;18.726;2023-12-29T00:31:27;100173.14;;;4.24;94.60
51147;BME280;37207;53.060;18.726;2023-12-29T00:33:53;100172.17;;;4.21;94.73
51147;BME280;37207;53.060;18.726;2023-12-29T00:36:20;100165.73;;;4.18;94.60
51147;BME280;37207;53.060;18.726;2023-12-29T00:38:47;100164.71;;;4.17;94.78
51147;BME280;37207;53.060;18.726;2023-12-29T00:41:14;100158.37;;;4.16;94.84
51147;BME280;37207;53.060;18.726;2023-12-29T00:43:41;100158.35;;;4.14;94.67
51147;BME280;37207;53.060;18.726;2023-12-29T00:46:08;100152.71;;;4.10;94.83
51147;BME280;37207;53.060;18.726;2023-12-29T00:48:35;100154.19;;;4.06;94.72
51147;BME280;37207;53.060;18.726;2023-12-29T00:51:03;100155.18;;;4.03;94.80
51147;BME280;37207;53.060;18.726;2023-12-29T00:53:30;100146.27;;;3.99;94.89
51147;BME280;37207;53.060;18.726;2023-12-29T00:56:00;100145.96;;;3.95;94.73
51147;BME280;37207;53.060;18.726;2023-12-29T00:58:26;100144.16;;;3.92;94.95
51147;BME280;37207;53.060;18.726;2023-12-29T01:00:53;100141.48;;;3.90;94.92
51147;BME280;37207;53.060;18.726;2023-12-29T01:03:21;100143.80;;;3.88;94.99
51147;BME280;37207;53.060;18.726;2023-12-29T01:05:48;100144.85;;;3.85;95.03
51147;BME280;37207;53.060;18.726;2023-12-29T01:08:15;100140.93;;;3.82;94.87
51147;BME280;37207;53.060;18.726;2023-12-29T01:10:41;100139.36;;;3.78;94.91
51147;BME280;37207;53.060;18.726;2023-12-29T01:13:08;100135.11;;;3.75;94.95
51147;BME280;37207;53.060;18.726;2023-12-29T01:15:35;100133.17;;;3.70;95.07
51147;BME280;37207;53.060;18.726;2023-12-29T01:18:01;100137.20;;;3.67;94.97
51147;BME280;37207;53.060;18.726;2023-12-29T01:20:28;100135.61;;;3.64;95.03
51147;BME280;37207;53.060;18.726;2023-12-29T01:22:54;100137.56;;;3.62;95.11
51147;BME280;37207;53.060;18.726;2023-12-29T01:25:21;100133.91;;;3.60;95.30
51147;BME280;37207;53.060;18.726;2023-12-29T01:27:47;100129.09;;;3.57;95.31
51147;BME280;37207;53.060;18.726;2023-12-29T01:30:14;100120.65;;;3.56;95.30
51147;BME280;37207;53.060;18.726;2023-12-29T01:32:41;100115.90;;;3.53;95.36
51147;BME280;37207;53.060;18.726;2023-12-29T01:35:07;100114.52;;;3.50;95.53
51147;BME280;37207;53.060;18.726;2023-12-29T01:37:34;100114.59;;;3.48;95.41
51147;BME280;37207;53.060;18.726;2023-12-29T01:40:00;100111.02;;;3.46;95.42
51147;BME280;37207;53.060;18.726;2023-12-29T01:42:27;100108.02;;;3.43;95.32
51147;BME280;37207;53.060;18.726;2023-12-29T01:44:53;100104.75;;;3.41;95.51
51147;BME280;37207;53.060;18.726;2023-12-29T01:47:21;100101.42;;;3.38;95.69
51147;BME280;37207;53.060;18.726;2023-12-29T01:49:49;100100.98;;;3.35;95.63
51147;BME280;37207;53.060;18.726;2023-12-29T01:52:17;100099.17;;;3.33;95.66
51147;BME280;37207;53.060;18.726;2023-12-29T01:54:46;100098.55;;;3.34;95.75
51147;BME280;37207;53.060;18.726;2023-12-29T01:57:14;100099.52;;;3.33;95.94
51147;BME280;37207;53.060;18.726;2023-12-29T01:59:41;100097.46;;;3.31;95.97
51147;BME280;37207;53.060;18.726;2023-12-29T02:02:08;100091.64;;;3.31;95.93
51147;BME280;37207;53.060;18.726;2023-12-29T02:04:34;100091.80;;;3.29;95.95
51147;BME280;37207;53.060;18.726;2023-12-29T02:07:05;100089.25;;;3.28;95.94
51147;BME280;37207;53.060;18.726;2023-12-29T02:09:32;100084.77;;;3.27;96.09
51147;BME280;37207;53.060;18.726;2023-12-29T02:12:00;100085.33;;;3.27;96.19
51147;BME280;37207;53.060;18.726;2023-12-29T02:14:27;100079.20;;;3.28;96.21
51147;BME280;37207;53.060;18.726;2023-12-29T02:19:38;100071.70;;;3.30;96.27
51147;BME280;37207;53.060;18.726;2023-12-29T02:22:08;100076.64;;;3.32;96.40
51147;BME280;37207;53.060;18.726;2023-12-29T02:24:36;100075.12;;;3.32;96.53
51147;BME280;37207;53.060;18.726;2023-12-29T02:30:01;100066.61;;;3.35;96.58
51147;BME280;37207;53.060;18.726;2023-12-29T02:32:31;100060.83;;;3.35;96.51
51147;BME280;37207;53.060;18.726;2023-12-29T02:35:01;100049.92;;;3.36;96.56
51147;BME280;37207;53.060;18.726;2023-12-29T02:37:29;100044.67;;;3.35;96.39
51147;BME280;37207;53.060;18.726;2023-12-29T02:39:58;100038.60;;;3.33;96.58
51147;BME280;37207;53.060;18.726;2023-12-29T02:42:25;100040.96;;;3.32;96.50
51147;BME280;37207;53.060;18.726;2023-12-29T02:44:51;100034.00;;;3.30;96.45
51147;BME280;37207;53.060;18.726;2023-12-29T02:47:18;100028.41;;;3.29;96.51
51147;BME280;37207;53.060;18.726;2023-12-29T02:49:45;100028.95;;;3.27;96.76
51147;BME280;37207;53.060;18.726;2023-12-29T02:52:12;100035.52;;;3.26;96.61
51147;BME280;37207;53.060;18.726;2023-12-29T02:54:38;100032.55;;;3.26;96.61
51147;BME280;37207;53.060;18.726;2023-12-29T02:57:05;100032.22;;;3.25;96.77
51147;BME280;37207;53.060;18.726;2023-12-29T02:59:31;100032.03;;;3.24;96.64
51147;BME280;37207;53.060;18.726;2023-12-29T03:01:58;100033.63;;;3.23;96.85
51147;BME280;37207;53.060;18.726;2023-12-29T03:04:24;100031.10;;;3.21;96.79
51147;BME280;37207;53.060;18.726;2023-12-29T03:06:51;100026.81;;;3.19;96.89
51147;BME280;37207;53.060;18.726;2023-12-29T03:09:17;100021.41;;;3.18;96.88
51147;BME280;37207;53.060;18.726;2023-12-29T03:11:44;100019.34;;;3.17;97.16
51147;BME280;37207;53.060;18.726;2023-12-29T03:14:10;100015.30;;;3.16;97.17
51147;BME280;37207;53.060;18.726;2023-12-29T03:16:37;100011.48;;;3.16;97.19
51147;BME280;37207;53.060;18.726;2023-12-29T03:19:03;100008.33;;;3.17;97.23
51147;BME280;37207;53.060;18.726;2023-12-29T03:21:30;100005.33;;;3.16;97.35
51147;BME280;37207;53.060;18.726;2023-12-29T03:23:56;100009.15;;;3.16;97.28
51147;BME280;37207;53.060;18.726;2023-12-29T03:26:23;100004.08;;;3.16;97.45
51147;BME280;37207;53.060;18.726;2023-12-29T03:28:50;99993.84;;;3.17;97.43
51147;BME280;37207;53.060;18.726;2023-12-29T03:31:17;99990.65;;;3.16;97.46
51147;BME280;37207;53.060;18.726;2023-12-29T03:33:43;99999.42;;;3.18;97.51
51147;BME280;37207;53.060;18.726;2023-12-29T03:36:10;99999.39;;;3.18;97.41
51147;BME280;37207;53.060;18.726;2023-12-29T03:38:36;100000.55;;;3.19;97.66
51147;BME280;37207;53.060;18.726;2023-12-29T03:41:06;99991.57;;;3.19;97.76
51147;BME280;37207;53.060;18.726;2023-12-29T03:43:32;99992.28;;;3.21;97.70
51147;BME280;37207;53.060;18.726;2023-12-29T03:45:59;99995.98;;;3.22;97.89
51147;BME280;37207;53.060;18.726;2023-12-29T03:48:25;99989.71;;;3.23;97.78
51147;BME280;37207;53.060;18.726;2023-12-29T03:50:52;99987.92;;;3.23;97.87
51147;BME280;37207;53.060;18.726;2023-12-29T03:53:18;99986.71;;;3.23;97.96
51147;BME280;37207;53.060;18.726;2023-12-29T03:55:45;99983.23;;;3.25;97.76
51147;BME280;37207;53.060;18.726;2023-12-29T03:58:12;99981.42;;;3.27;97.87
51147;BME280;37207;53.060;18.726;2023-12-29T04:00:38;99976.50;;;3.29;97.98
51147;BME280;37207;53.060;18.726;2023-12-29T04:03:07;99973.02;;;3.32;98.29
51147;BME280;37207;53.060;18.726;2023-12-29T04:05:34;99966.30;;;3.34;98.16
51147;BME280;37207;53.060;18.726;2023-12-29T04:08:01;99965.46;;;3.38;98.30
51147;BME280;37207;53.060;18.726;2023-12-29T04:10:27;99957.49;;;3.40;98.47
51147;BME280;37207;53.060;18.726;2023-12-29T04:12:54;99963.42;;;3.44;98.52
51147;BME280;37207;53.060;18.726;2023-12-29T04:15:21;99962.69;;;3.46;98.64
51147;BME280;37207;53.060;18.726;2023-12-29T04:17:47;99961.58;;;3.51;98.63
51147;BME280;37207;53.060;18.726;2023-12-29T04:20:14;99955.02;;;3.53;98.56
51147;BME280;37207;53.060;18.726;2023-12-29T04:22:40;99942.21;;;3.55;98.53
51147;BME280;37207;53.060;18.726;2023-12-29T04:25:08;99946.33;;;3.58;98.58
51147;BME280;37207;53.060;18.726;2023-12-29T04:27:35;99949.19;;;3.60;98.37
51147;BME280;37207;53.060;18.726;2023-12-29T04:30:02;99946.88;;;3.63;98.49
51147;BME280;37207;53.060;18.726;2023-12-29T04:32:30;99947.44;;;3.64;98.55
51147;BME280;37207;53.060;18.726;2023-12-29T04:34:56;99947.96;;;3.65;98.19
51147;BME280;37207;53.060;18.726;2023-12-29T04:37:23;99945.59;;;3.64;98.21
51147;BME280;37207;53.060;18.726;2023-12-29T04:39:49;99946.78;;;3.63;98.12
51147;BME280;37207;53.060;18.726;2023-12-29T04:42:19;99943.90;;;3.63;98.15
51147;BME280;37207;53.060;18.726;2023-12-29T04:44:46;99945.63;;;3.63;98.13
51147;BME280;37207;53.060;18.726;2023-12-29T04:47:12;99945.23;;;3.63;98.14
51147;BME280;37207;53.060;18.726;2023-12-29T04:49:39;99937.31;;;3.64;98.07
51147;BME280;37207;53.060;18.726;2023-12-29T04:52:06;99938.73;;;3.65;98.26
51147;BME280;37207;53.060;18.726;2023-12-29T04:54:32;99935.13;;;3.68;98.43
51147;BME280;37207;53.060;18.726;2023-12-29T04:56:59;99935.92;;;3.71;98.24
51147;BME280;37207;53.060;18.726;2023-12-29T04:59:25;99930.54;;;3.73;98.23
51147;BME280;37207;53.060;18.726;2023-12-29T05:01:52;99930.20;;;3.76;98.18
51147;BME280;37207;53.060;18.726;2023-12-29T05:04:18;99921.10;;;3.79;98.40
51147;BME280;37207;53.060;18.726;2023-12-29T05:06:45;99915.92;;;3.81;98.22
51147;BME280;37207;53.060;18.726;2023-12-29T05:09:11;99908.48;;;3.83;98.48
51147;BME280;37207;53.060;18.726;2023-12-29T05:11:38;99902.20;;;3.86;98.39
51147;BME280;37207;53.060;18.726;2023-12-29T05:14:05;99902.72;;;3.89;98.28
51147;BME280;37207;53.060;18.726;2023-12-29T05:16:32;99893.89;;;3.91;98.27
51147;BME280;37207;53.060;18.726;2023-12-29T05:18:58;99890.10;;;3.94;98.45
51147;BME280;37207;53.060;18.726;2023-12-29T05:21:25;99885.88;;;3.96;98.42
51147;BME280;37207;53.060;18.726;2023-12-29T05:23:53;99882.59;;;3.96;98.20
51147;BME280;37207;53.060;18.726;2023-12-29T05:26:19;99883.92;;;3.95;98.09
51147;BME280;37207;53.060;18.726;2023-12-29T05:28:46;99880.26;;;3.96;98.04
51147;BME280;37207;53.060;18.726;2023-12-29T05:31:12;99880.08;;;3.94;97.93
51147;BME280;37207;53.060;18.726;2023-12-29T05:33:39;99890.86;;;3.94;97.99
51147;BME280;37207;53.060;18.726;2023-12-29T05:36:06;99894.20;;;3.95;98.01
51147;BME280;37207;53.060;18.726;2023-12-29T05:38:34;99899.93;;;3.95;98.02
51147;BME280;37207;53.060;18.726;2023-12-29T05:41:04;99894.65;;;3.95;98.00
51147;BME280;37207;53.060;18.726;2023-12-29T05:43:32;99889.52;;;3.94;98.03
51147;BME280;37207;53.060;18.726;2023-12-29T05:45:59;99890.48;;;3.94;97.86
51147;BME280;37207;53.060;18.726;2023-12-29T05:48:26;99902.00;;;3.93;98.11
51147;BME280;37207;53.060;18.726;2023-12-29T05:50:53;99900.39;;;3.92;98.10
51147;BME280;37207;53.060;18.726;2023-12-29T05:53:20;99890.16;;;3.92;97.91
51147;BME280;37207;53.060;18.726;2023-12-29T05:55:46;99888.70;;;3.94;98.04
51147;BME280;37207;53.060;18.726;2023-12-29T05:58:13;99885.48;;;3.94;97.96
51147;BME280;37207;53.060;18.726;2023-12-29T06:00:39;99884.17;;;3.95;98.03
51147;BME280;37207;53.060;18.726;2023-12-29T06:03:06;99876.80;;;3.96;98.21
51147;BME280;37207;53.060;18.726;2023-12-29T06:05:32;99873.00;;;3.95;98.23
51147;BME280;37207;53.060;18.726;2023-12-29T06:07:59;99873.70;;;3.96;98.21
51147;BME280;37207;53.060;18.726;2023-12-29T06:10:26;99871.30;;;3.95;98.14
51147;BME280;37207;53.060;18.726;2023-12-29T06:12:52;99868.97;;;3.95;98.05
51147;BME280;37207;53.060;18.726;2023-12-29T06:15:19;99863.56;;;3.94;97.95
51147;BME280;37207;53.060;18.726;2023-12-29T06:17:46;99860.98;;;3.92;97.87
51147;BME280;37207;53.060;18.726;2023-12-29T06:20:13;99859.27;;;3.88;97.68
51147;BME280;37207;53.060;18.726;2023-12-29T06:22:40;99861.64;;;3.85;97.85
51147;BME280;37207;53.060;18.726;2023-12-29T06:25:11;99852.54;;;3.82;97.81
51147;BME280;37207;53.060;18.726;2023-12-29T06:27:38;99846.94;;;3.80;97.90
51147;BME280;37207;53.060;18.726;2023-12-29T06:30:07;99836.84;;;3.78;98.08
51147;BME280;37207;53.060;18.726;2023-12-29T06:32:34;99843.18;;;3.77;97.91
51147;BME280;37207;53.060;18.726;2023-12-29T06:35:01;99845.19;;;3.76;98.03
51147;BME280;37207;53.060;18.726;2023-12-29T06:37:28;99845.91;;;3.75;98.18
51147;BME280;37207;53.060;18.726;2023-12-29T06:39:54;99845.04;;;3.74;98.00
51147;BME280;37207;53.060;18.726;2023-12-29T06:42:21;99852.10;;;3.73;98.02
51147;BME280;37207;53.060;18.726;2023-12-29T06:44:49;99855.50;;;3.72;98.25
51147;BME280;37207;53.060;18.726;2023-12-29T06:47:15;99861.35;;;3.70;98.13
51147;BME280;37207;53.060;18.726;2023-12-29T06:49:42;99851.81;;;3.68;97.93
51147;BME280;37207;53.060;18.726;2023-12-29T06:52:09;99847.21;;;3.69;98.18
51147;BME280;37207;53.060;18.726;2023-12-29T06:54:35;99843.05;;;3.68;98.21
51147;BME280;37207;53.060;18.726;2023-12-29T06:57:02;99846.50;;;3.67;98.19
51147;BME280;37207;53.060;18.726;2023-12-29T06:59:28;99846.02;;;3.67;98.40
51147;BME280;37207;53.060;18.726;2023-12-29T07:01:55;99843.82;;;3.70;98.49
51147;BME280;37207;53.060;18.726;2023-12-29T07:04:21;99840.27;;;3.72;98.65
51147;BME280;37207;53.060;18.726;2023-12-29T07:06:48;99841.02;;;3.75;98.58
51147;BME280;37207;53.060;18.726;2023-12-29T07:09:14;99845.09;;;3.78;98.62
51147;BME280;37207;53.060;18.726;2023-12-29T07:11:41;99846.01;;;3.82;98.66
51147;BME280;37207;53.060;18.726;2023-12-29T07:14:07;99844.01;;;3.87;98.78
51147;BME280;37207;53.060;18.726;2023-12-29T07:16:34;99843.80;;;3.90;98.70
51147;BME280;37207;53.060;18.726;2023-12-29T07:19:00;99845.04;;;3.92;98.75
51147;BME280;37207;53.060;18.726;2023-12-29T07:21:27;99848.29;;;3.95;98.72
51147;BME280;37207;53.060;18.726;2023-12-29T07:23:53;99848.52;;;3.98;98.79
51147;BME280;37207;53.060;18.726;2023-12-29T07:26:22;99850.11;;;4.04;98.84
51147;BME280;37207;53.060;18.726;2023-12-29T07:28:49;99838.87;;;4.09;98.72
51147;BME280;37207;53.060;18.726;2023-12-29T07:31:21;99836.20;;;4.13;98.70
51147;BME280;37207;53.060;18.726;2023-12-29T07:33:49;99836.47;;;4.17;98.79
51147;BME280;37207;53.060;18.726;2023-12-29T07:36:15;99838.43;;;4.22;98.75
51147;BME280;37207;53.060;18.726;2023-12-29T07:38:42;99845.54;;;4.28;98.69
51147;BME280;37207;53.060;18.726;2023-12-29T07:41:09;99841.35;;;4.34;98.69
51147;BME280;37207;53.060;18.726;2023-12-29T07:43:35;99828.59;;;4.41;98.58
51147;BME280;37207;53.060;18.726;2023-12-29T07:46:04;99832.46;;;4.47;98.62
51147;BME280;37207;53.060;18.726;2023-12-29T07:48:31;99832.22;;;4.52;98.55
51147;BME280;37207;53.060;18.726;2023-12-29T07:51:03;99839.56;;;4.57;98.46
51147;BME280;37207;53.060;18.726;2023-12-29T07:53:31;99838.35;;;4.63;98.30
51147;BME280;37207;53.060;18.726;2023-12-29T07:55:57;99838.48;;;4.68;98.02
51147;BME280;37207;53.060;18.726;2023-12-29T07:58:24;99840.58;;;4.72;98.04
51147;BME280;37207;53.060;18.726;2023-12-29T08:00:50;99840.71;;;4.75;97.80
51147;BME280;37207;53.060;18.726;2023-12-29T08:03:17;99837.20;;;4.78;97.66
51147;BME280;37207;53.060;18.726;2023-12-29T08:05:43;99837.54;;;4.82;97.54
51147;BME280;37207;53.060;18.726;2023-12-29T08:08:12;99837.88;;;4.84;97.57
51147;BME280;37207;53.060;18.726;2023-12-29T08:10:38;99839.46;;;4.86;97.46
51147;BME280;37207;53.060;18.726;2023-12-29T08:13:05;99841.47;;;4.89;97.39
51147;BME280;37207;53.060;18.726;2023-12-29T08:15:35;99838.52;;;4.94;97.26
51147;BME280;37207;53.060;18.726;2023-12-29T08:18:02;99831.40;;;4.97;97.25
51147;BME280;37207;53.060;18.726;2023-12-29T08:20:28;99835.62;;;5.02;97.15
51147;BME280;37207;53.060;18.726;2023-12-29T08:22:55;99834.85;;;5.06;96.95
51147;BME280;37207;53.060;18.726;2023-12-29T08:25:23;99834.77;;;5.09;97.01
51147;BME280;37207;53.060;18.726;2023-12-29T08:27:49;99827.73;;;5.12;96.75
51147;BME280;37207;53.060;18.726;2023-12-29T08:30:16;99828.97;;;5.14;96.46
51147;BME280;37207;53.060;18.726;2023-12-29T08:32:43;99829.45;;;5.17;96.44
51147;BME280;37207;53.060;18.726;2023-12-29T08:35:09;99827.89;;;5.20;96.53
51147;BME280;37207;53.060;18.726;2023-12-29T08:37:36;99820.98;;;5.23;96.48
51147;BME280;37207;53.060;18.726;2023-12-29T08:40:03;99822.55;;;5.27;96.18
51147;BME280;37207;53.060;18.726;2023-12-29T08:42:29;99824.45;;;5.30;96.21
51147;BME280;37207;53.060;18.726;2023-12-29T08:44:58;99819.44;;;5.33;96.03
51147;BME280;37207;53.060;18.726;2023-12-29T08:47:25;99815.61;;;5.36;95.85
51147;BME280;37207;53.060;18.726;2023-12-29T08:49:51;99820.91;;;5.41;95.94
51147;BME280;37207;53.060;18.726;2023-12-29T08:52:20;99826.79;;;5.45;95.72
51147;BME280;37207;53.060;18.726;2023-12-29T08:54:47;99827.79;;;5.50;95.96
51147;BME280;37207;53.060;18.726;2023-12-29T08:57:14;99831.00;;;5.55;95.70
51147;BME280;37207;53.060;18.726;2023-12-29T08:59:40;99835.47;;;5.59;95.71
51147;BME280;37207;53.060;18.726;2023-12-29T09:02:07;99830.91;;;5.63;95.53
51147;BME280;37207;53.060;18.726;2023-12-29T09:04:33;99835.15;;;5.66;95.36
51147;BME280;37207;53.060;18.726;2023-12-29T09:07:00;99832.95;;;5.70;95.15
51147;BME280;37207;53.060;18.726;2023-12-29T09:09:26;99835.94;;;5.74;95.04
51147;BME280;37207;53.060;18.726;2023-12-29T09:11:53;99833.52;;;5.77;94.89
51147;BME280;37207;53.060;18.726;2023-12-29T09:14:19;99832.56;;;5.82;95.07
51147;BME280;37207;53.060;18.726;2023-12-29T09:16:46;99830.56;;;5.87;94.77
51147;BME280;37207;53.060;18.726;2023-12-29T09:19:13;99828.95;;;5.91;94.57
51147;BME280;37207;53.060;18.726;2023-12-29T09:21:39;99822.58;;;5.97;94.57
51147;BME280;37207;53.060;18.726;2023-12-29T09:24:06;99826.57;;;6.03;94.58
51147;BME280;37207;53.060;18.726;2023-12-29T09:26:33;99827.58;;;6.10;94.31
51147;BME280;37207;53.060;18.726;2023-12-29T09:29:00;99830.82;;;6.16;94.17
51147;BME280;37207;53.060;18.726;2023-12-29T09:31:26;99824.70;;;6.19;93.91
51147;BME280;37207;53.060;18.726;2023-12-29T09:33:53;99831.36;;;6.20;93.58
51147;BME280;37207;53.060;18.726;2023-12-29T09:36:19;99826.42;;;6.20;93.74
51147;BME280;37207;53.060;18.726;2023-12-29T09:38:46;99830.32;;;6.21;93.49
51147;BME280;37207;53.060;18.726;2023-12-29T09:41:14;99833.23;;;6.23;93.42
51147;BME280;37207;53.060;18.726;2023-12-29T09:43:42;99833.02;;;6.25;93.51
51147;BME280;37207;53.060;18.726;2023-12-29T09:46:13;99824.64;;;6.28;93.53
51147;BME280;37207;53.060;18.726;2023-12-29T09:48:42;99828.39;;;6.28;93.54
51147;BME280;37207;53.060;18.726;2023-12-29T09:51:11;99820.50;;;6.28;93.77
51147;BME280;37207;53.060;18.726;2023-12-29T09:53:39;99821.59;;;6.28;93.59
51147;BME280;37207;53.060;18.726;2023-12-29T09:56:08;99816.20;;;6.28;93.68
51147;BME280;37207;53.060;18.726;2023-12-29T09:58:35;99812.77;;;6.28;93.73
51147;BME280;37207;53.060;18.726;2023-12-29T10:01:04;99808.02;;;6.27;93.88
51147;BME280;37207;53.060;18.726;2023-12-29T10:03:34;99806.30;;;6.27;94.07
51147;BME280;37207;53.060;18.726;2023-12-29T10:06:03;99804.72;;;6.27;94.22
51147;BME280;37207;53.060;18.726;2023-12-29T10:08:33;99804.30;;;6.29;94.07
51147;BME280;37207;53.060;18.726;2023-12-29T10:11:00;99803.91;;;6.32;94.14
51147;BME280;37207;53.060;18.726;2023-12-29T10:13:29;99790.61;;;6.36;94.19
51147;BME280;37207;53.060;18.726;2023-12-29T10:15:58;99789.41;;;6.39;94.17
51147;BME280;37207;53.060;18.726;2023-12-29T10:18:42;99804.08;;;6.42;93.99
51147;BME280;37207;53.060;18.726;2023-12-29T10:21:23;99804.48;;;6.44;94.05
51147;BME280;37207;53.060;18.726;2023-12-29T10:24:07;99788.10;;;6.49;94.03
51147;BME280;37207;53.060;18.726;2023-12-29T10:26:37;99788.83;;;6.58;93.72
51147;BME280;37207;53.060;18.726;2023-12-29T10:29:04;99791.13;;;6.69;93.77
51147;BME280;37207;53.060;18.726;2023-12-29T10:31:30;99790.48;;;6.81;93.55
51147;BME280;37207;53.060;18.726;2023-12-29T10:34:23;99797.09;;;6.93;93.35
51147;BME280;37207;53.060;18.726;2023-12-29T10:36:59;99795.49;;;7.09;93.15
51147;BME280;37207;53.060;18.726;2023-12-29T10:39:25;99789.63;;;7.19;92.70
51147;BME280;37207;53.060;18.726;2023-12-29T10:42:03;99784.95;;;7.26;92.32
51147;BME280;37207;53.060;18.726;2023-12-29T10:44:31;99783.02;;;7.36;92.25
51147;BME280;37207;53.060;18.726;2023-12-29T10:46:57;99787.02;;;7.45;91.87
51147;BME280;37207;53.060;18.726;2023-12-29T10:49:24;99784.29;;;7.52;91.53
51147;BME280;37207;53.060;18.726;2023-12-29T10:51:50;99792.05;;;7.63;91.60
51147;BME280;37207;53.060;18.726;2023-12-29T10:54:20;99794.17;;;7.71;91.23
51147;BME280;37207;53.060;18.726;2023-12-29T10:57:00;99796.84;;;7.76;90.72
51147;BME280;37207;53.060;18.726;2023-12-29T10:59:28;99802.17;;;7.81;90.38
51147;BME280;37207;53.060;18.726;2023-12-29T11:01:56;99794.02;;;7.88;90.28
51147;BME280;37207;53.060;18.726;2023-12-29T11:04:23;99802.38;;;7.92;89.80
51147;BME280;37207;53.060;18.726;2023-12-29T11:06:49;99798.88;;;7.92;89.33
51147;BME280;37207;53.060;18.726;2023-12-29T11:09:37;99797.05;;;7.85;89.06
51147;BME280;37207;53.060;18.726;2023-12-29T11:12:04;99785.56;;;7.82;88.70
51147;BME280;37207;53.060;18.726;2023-12-29T11:14:32;99778.60;;;7.84;88.67
51147;BME280;37207;53.060;18.726;2023-12-29T11:17:00;99775.09;;;7.94;88.69
51147;BME280;37207;53.060;18.726;2023-12-29T11:19:27;99777.59;;;8.06;88.45
51147;BME280;37207;53.060;18.726;2023-12-29T11:21:57;99779.80;;;8.21;87.92
51147;BME280;37207;53.060;18.726;2023-12-29T11:24:24;99774.86;;;8.40;88.18
51147;BME280;37207;53.060;18.726;2023-12-29T11:26:51;99772.23;;;8.51;87.90
51147;BME280;37207;53.060;18.726;2023-12-29T11:29:19;99770.36;;;8.63;87.75
51147;BME280;37207;53.060;18.726;2023-12-29T11:31:46;99765.52;;;8.76;87.49
51147;BME280;37207;53.060;18.726;2023-12-29T11:34:28;99763.45;;;8.94;87.49
51147;BME280;37207;53.060;18.726;2023-12-29T11:40:14;99764.25;;;9.15;85.98
51147;BME280;37207;53.060;18.726;2023-12-29T11:42:47;99764.10;;;9.19;84.97
51147;BME280;37207;53.060;18.726;2023-12-29T11:45:25;99764.53;;;9.28;85.09
51147;BME280;37207;53.060;18.726;2023-12-29T11:47:52;99761.91;;;9.26;84.35
51147;BME280;37207;53.060;18.726;2023-12-29T11:50:35;99758.79;;;9.19;84.29
51147;BME280;37207;53.060;18.726;2023-12-29T11:53:03;99760.51;;;9.10;84.19
51147;BME280;37207;53.060;18.726;2023-12-29T11:55:34;99761.63;;;9.01;84.15
51147;BME280;37207;53.060;18.726;2023-12-29T11:58:02;99763.52;;;8.89;84.42
51147;BME280;37207;53.060;18.726;2023-12-29T12:00:45;99759.30;;;8.81;84.51
51147;BME280;37207;53.060;18.726;2023-12-29T12:03:31;99763.83;;;8.78;84.70
51147;BME280;37207;53.060;18.726;2023-12-29T12:05:58;99756.98;;;8.82;84.27
51147;BME280;37207;53.060;18.726;2023-12-29T12:08:36;99754.41;;;8.88;84.23
51147;BME280;37207;53.060;18.726;2023-12-29T12:11:41;99756.50;;;8.96;84.23
51147;BME280;37207;53.060;18.726;2023-12-29T12:14:07;99755.55;;;9.11;84.36
51147;BME280;37207;53.060;18.726;2023-12-29T12:16:47;99752.59;;;9.26;83.95
51147;BME280;37207;53.060;18.726;2023-12-29T12:19:14;99746.15;;;9.31;83.20
51147;BME280;37207;53.060;18.726;2023-12-29T12:21:47;99741.69;;;9.36;82.88
51147;BME280;37207;53.060;18.726;2023-12-29T12:24:19;99744.86;;;9.35;82.82
51147;BME280;37207;53.060;18.726;2023-12-29T12:26:46;99748.55;;;9.31;82.87
51147;BME280;37207;53.060;18.726;2023-12-29T12:29:13;99754.04;;;9.23;82.85
51147;BME280;37207;53.060;18.726;2023-12-29T12:31:56;99749.86;;;9.14;82.93
51147;BME280;37207;53.060;18.726;2023-12-29T12:34:23;99751.45;;;9.02;82.63
51147;BME280;37207;53.060;18.726;2023-12-29T12:36:51;99752.68;;;8.92;83.05
51147;BME280;37207;53.060;18.726;2023-12-29T12:39:18;99755.04;;;8.82;83.12
51147;BME280;37207;53.060;18.726;2023-12-29T12:41:45;99742.79;;;8.74;83.24
51147;BME280;37207;53.060;18.726;2023-12-29T12:44:13;99744.35;;;8.68;83.25
51147;BME280;37207;53.060;18.726;2023-12-29T12:49:11;99758.64;;;8.55;83.66
51147;BME280;37207;53.060;18.726;2023-12-29T12:51:38;99758.62;;;8.51;83.54
51147;BME280;37207;53.060;18.726;2023-12-29T12:54:05;99750.26;;;8.47;83.74
51147;BME280;37207;53.060;18.726;2023-12-29T12:56:32;99749.27;;;8.43;83.81
51147;BME280;37207;53.060;18.726;2023-12-29T12:59:01;99745.59;;;8.38;83.93
51147;BME280;37207;53.060;18.726;2023-12-29T13:01:29;99748.75;;;8.34;83.93
51147;BME280;37207;53.060;18.726;2023-12-29T13:04:01;99754.92;;;8.31;83.77
51147;BME280;37207;53.060;18.726;2023-12-29T13:06:29;99761.95;;;8.28;83.85
51147;BME280;37207;53.060;18.726;2023-12-29T13:08:56;99761.59;;;8.25;84.03
51147;BME280;37207;53.060;18.726;2023-12-29T13:11:23;99766.86;;;8.24;84.13
51147;BME280;37207;53.060;18.726;2023-12-29T13:13:51;99758.84;;;8.21;84.27